Time;durP1;ratioP1;P1;durP2;ratioP2;P2;SDS_P1;SDS_P2;PMS_P1;PMS_P2;Temp;Humidity;BMP_temperature;BMP_pressure;BME280_temperature;BME280_humidity;BME280_pressure;Samples;Min_cycle;Max_cycle;Signal;HPM_P1;HPM_P2
2023/02/14 00:02:11;;;;;;;59.17;26.25;;;154.00;2252.80;;;;;;5048010;28;19920;-76
2023/02/14 00:04:41;;;;;;;52.60;23.98;;;154.10;2252.80;;;;;;5049755;28;20053;-78
2023/02/14 00:07:06;;;;;;;61.92;29.05;;;154.10;2252.80;;;;;;5057723;28;20485;-78
2023/02/14 00:09:32;;;;;;;;;;;154.10;2252.80;;;;;;5043725;28;20028;-78
2023/02/14 00:11:58;;;;;;;73.95;28.95;;;154.10;2252.80;;;;;;5042759;28;20428;-78
2023/02/14 00:17:08;;;;;;;69.07;30.95;;;154.10;2252.80;;;;;;5065659;28;19911;-78
2023/02/14 00:19:34;;;;;;;;;;;154.10;2252.80;;;;;;5067929;28;20410;-78
2023/02/14 00:22:01;;;;;;;66.50;29.88;;;154.10;2252.80;;;;;;5040255;28;19995;-78
2023/02/14 00:24:27;;;;;;;53.08;27.10;;;154.00;2252.80;;;;;;5048290;28;20029;-77
2023/02/14 00:26:52;;;;;;;;;;;154.00;2252.80;;;;;;5049830;28;20040;-78
2023/02/14 00:29:26;;;;;;;55.90;24.23;;;154.10;2252.80;;;;;;5048916;28;19905;-78
2023/02/14 00:31:52;;;;;;;57.15;27.42;;;154.00;2252.80;;;;;;5049618;28;20029;-78
2023/02/14 00:34:18;;;;;;;;;;;154.00;2252.80;;;;;;5037847;28;20589;-77
2023/02/14 00:36:44;;;;;;;53.22;27.13;;;153.80;2252.80;;;;;;5036309;28;19908;-78
2023/02/14 00:39:12;;;;;;;58.78;27.00;;;153.80;2252.80;;;;;;5035816;28;20024;-78
2023/02/14 00:41:38;;;;;;;48.47;23.70;;;153.90;2252.80;;;;;;5036225;28;20172;-78
2023/02/14 00:44:05;;;;;;;52.28;26.17;;;154.00;2252.80;;;;;;5035676;28;20032;-78
2023/02/14 00:46:31;;;;;;;49.33;24.08;;;153.90;2252.80;;;;;;5035633;28;20076;-77
2023/02/14 00:48:56;;;;;;;;;;;153.70;2252.80;;;;;;5036252;28;20057;-77
2023/02/14 00:51:22;;;;;;;49.72;23.75;;;153.80;2252.80;;;;;;5035706;28;19904;-77
2023/02/14 00:53:49;;;;;;;48.03;23.70;;;153.80;2252.80;;;;;;5035815;28;20055;-78
2023/02/14 00:56:16;;;;;;;51.15;23.95;;;153.80;2252.80;;;;;;5035459;28;20494;-78
2023/02/14 00:58:43;;;;;;;44.75;22.23;;;153.90;2252.80;;;;;;5053340;28;20074;-77
2023/02/14 01:01:09;;;;;;;49.40;22.30;;;153.90;2252.80;;;;;;5035380;28;20123;-78
2023/02/14 01:03:35;;;;;;;;;;;153.90;2252.80;;;;;;5035929;28;20045;-78
2023/02/14 01:06:01;;;;;;;48.50;22.08;;;153.90;2252.80;;;;;;5035103;28;19912;-78
2023/02/14 01:08:27;;;;;;;44.55;23.67;;;153.80;2252.80;;;;;;5032310;28;20136;-77
2023/02/14 01:10:53;;;;;;;;;;;153.80;2252.80;;;;;;5035729;28;20120;-78
2023/02/14 01:13:19;;;;;;;46.80;22.02;;;153.90;2252.80;;;;;;5035211;28;19908;-78
2023/02/14 01:15:45;;;;;;;;;;;154.00;2252.80;;;;;;5053437;28;20060;-78
2023/02/14 01:18:16;;;;;;;32.05;15.68;;;154.00;2252.80;;;;;;5035091;28;19912;-79
2023/02/14 01:20:41;;;;;;;49.08;22.63;;;154.10;2252.80;;;;;;5035416;28;20033;-78
2023/02/14 01:23:07;;;;;;;;;;;154.00;2252.80;;;;;;5053331;28;20040;-78
2023/02/14 01:25:35;;;;;;;44.28;22.05;;;154.00;2252.80;;;;;;5035289;28;19952;-77
2023/02/14 01:28:00;;;;;;;42.63;21.02;;;153.90;2252.80;;;;;;5035100;28;20033;-78
2023/02/14 01:30:26;;;;;;;;;;;153.90;2252.80;;;;;;5035652;28;20029;-76
2023/02/14 01:32:52;;;;;;;43.95;19.98;;;154.00;2252.80;;;;;;5035131;28;20350;-78
2023/02/14 01:35:17;;;;;;;;;;;154.10;2252.80;;;;;;5035610;28;20023;-78
2023/02/14 01:37:43;;;;;;;39.58;18.13;;;154.10;2252.80;;;;;;5035107;28;19908;-77
2023/02/14 01:40:10;;;;;;;;;;;154.10;2252.80;;;;;;5035315;28;20051;-78
2023/02/14 01:42:36;;;;;;;28.05;14.43;;;154.10;2252.80;;;;;;5034993;28;19912;-77
2023/02/14 01:45:04;;;;;;;;;;;154.10;2252.80;;;;;;5035740;28;20124;-78
2023/02/14 01:47:33;;;;;;;44.95;20.52;;;154.20;2252.80;;;;;;5043587;28;19912;-77
2023/02/14 01:50:08;;;;;;;54.25;22.58;;;154.20;2252.80;;;;;;5034963;28;20490;-77
2023/02/14 01:52:40;;;;;;;46.80;21.27;;;154.30;2252.80;;;;;;5033252;28;20025;-78
2023/02/14 01:55:10;;;;;;;46.22;19.83;;;154.40;2252.80;;;;;;5035111;28;20025;-77
2023/02/14 01:57:42;;;;;;;37.90;19.33;;;154.40;2252.80;;;;;;5034863;28;20116;-78
2023/02/14 02:02:54;;;;;;;41.67;20.13;;;154.50;2252.80;;;;;;5050877;28;20074;-78
2023/02/14 02:05:22;;;;;;;43.65;21.50;;;154.50;2252.80;;;;;;5034793;28;20083;-78
2023/02/14 02:07:50;;;;;;;43.13;21.42;;;154.40;2252.80;;;;;;5052541;28;20037;-78
2023/02/14 02:10:16;;;;;;;43.72;21.90;;;154.50;2252.80;;;;;;5034770;28;20044;-77
2023/02/14 02:12:43;;;;;;;33.83;17.55;;;154.50;2252.80;;;;;;5034697;28;20028;-77
2023/02/14 02:15:08;;;;;;;;;;;154.40;2252.80;;;;;;5034798;28;20033;-78
2023/02/14 02:17:56;;;;;;;35.80;16.98;;;154.50;2252.80;;;;;;5037803;28;20058;-78
2023/02/14 02:20:46;;;;;;;35.50;18.00;;;154.40;2252.80;;;;;;5037308;28;20139;-78
2023/02/14 02:23:23;;;;;;;35.20;16.55;;;154.40;2252.80;;;;;;5038031;28;20090;-78
2023/02/14 02:26:04;;;;;;;31.02;16.20;;;154.40;2252.80;;;;;;5037846;28;20021;-76
2023/02/14 02:28:48;;;;;;;32.05;18.30;;;154.40;2252.80;;;;;;5055699;28;20037;-77
2023/02/14 02:31:32;;;;;;;43.42;18.30;;;154.30;2252.80;;;;;;5037764;28;20429;-77
2023/02/14 02:34:28;;;;;;;38.70;17.85;;;154.30;2252.80;;;;;;5037842;28;20021;-76
2023/02/14 02:37:26;;;;;;;28.45;16.65;;;154.30;2252.80;;;;;;5037528;28;20028;-78
2023/02/14 02:40:10;;;;;;;36.25;17.15;;;154.30;2252.80;;;;;;4973814;28;20049;-77
2023/02/14 02:42:48;;;;;;;35.28;17.33;;;154.30;2252.80;;;;;;4974594;28;20026;-77
2023/02/14 02:45:32;;;;;;;36.03;16.45;;;154.10;2252.80;;;;;;4958122;28;20119;-77
2023/02/14 02:48:01;;;;;;;35.75;15.88;;;154.20;2252.80;;;;;;4974189;28;20043;-77
2023/02/14 02:54:08;;;;;;;28.48;14.85;;;154.10;2252.80;;;;;;4974696;28;20058;-77
2023/02/14 02:56:46;;;;;;;32.10;15.02;;;154.10;2252.80;;;;;;4916893;29;20071;-77
2023/02/14 02:59:20;;;;;;;31.70;15.45;;;154.20;2252.80;;;;;;4916674;29;20112;-77
2023/02/14 03:01:56;;;;;;;30.63;15.60;;;154.20;2252.80;;;;;;4901030;29;20179;-80
2023/02/14 03:09:56;;;;;;;26.45;13.82;;;154.20;2252.80;;;;;;4916508;29;20090;-76
2023/02/14 03:12:33;;;;;;;27.27;13.30;;;154.20;2252.80;;;;;;4900661;29;20080;-77
2023/02/14 03:15:08;;;;;;;26.52;13.32;;;154.20;2252.80;;;;;;4916373;29;20040;-76
2023/02/14 03:17:49;;;;;;;26.17;14.60;;;154.40;2252.80;;;;;;4938454;29;20486;-78
2023/02/14 03:20:36;;;;;;;29.05;14.60;;;154.40;2252.80;;;;;;4939464;29;20541;-76
2023/02/14 03:23:13;;;;;;;;;;;154.30;2252.80;;;;;;4939878;29;20031;-78
2023/02/14 03:26:02;;;;;;;22.45;10.60;;;154.10;2252.80;;;;;;4937729;29;19906;-79
2023/02/14 03:28:46;;;;;;;25.83;13.77;;;154.30;2252.80;;;;;;5013790;28;20026;-77
2023/02/14 03:31:35;;;;;;;27.00;13.27;;;154.40;2252.80;;;;;;5015786;28;20124;-77
2023/02/14 03:34:07;;;;;;;29.00;13.20;;;154.50;2252.80;;;;;;5032312;28;20049;-78
2023/02/14 03:36:51;;;;;;;27.85;12.25;;;154.50;2252.80;;;;;;5032383;28;20026;-77
2023/02/14 03:39:34;;;;;;;26.40;13.05;;;179.20;2252.80;;;;;;5031326;28;20045;-77
2023/02/14 03:42:09;;;;;;;27.35;12.98;;;154.50;2252.80;;;;;;5015480;28;20095;-78
2023/02/14 03:44:36;;;;;;;27.73;13.23;;;179.20;2252.80;;;;;;5032086;28;20028;-77
2023/02/14 03:47:15;;;;;;;27.52;13.85;;;154.50;2252.80;;;;;;5032054;28;20049;-78
2023/02/14 03:49:49;;;;;;;24.48;12.65;;;154.50;2252.80;;;;;;5032269;28;20017;-78
2023/02/14 03:52:17;;;;;;;29.20;14.60;;;154.50;2252.80;;;;;;5031784;28;20442;-78
2023/02/14 03:54:45;;;;;;;27.67;13.57;;;179.20;2252.80;;;;;;5032027;28;20503;-78
2023/02/14 03:57:23;;;;;;;25.92;13.18;;;154.50;2252.80;;;;;;5031943;28;20037;-78
2023/02/14 03:59:49;;;;;;;29.40;15.18;;;179.20;2252.80;;;;;;5031187;28;20029;-78
2023/02/14 04:02:21;;;;;;;;;;;154.50;2252.80;;;;;;5031967;28;20168;-76
2023/02/14 04:04:49;;;;;;;20.55;11.18;;;154.50;2252.80;;;;;;5019955;28;19912;-77
2023/02/14 04:07:18;;;;;;;23.35;11.82;;;154.40;2252.80;;;;;;5053200;28;20041;-77
2023/02/14 04:09:44;;;;;;;23.58;12.98;;;154.30;2252.80;;;;;;5053108;28;20029;-77
2023/02/14 04:12:10;;;;;;;21.55;11.80;;;154.40;2252.80;;;;;;5035902;28;20486;-77
2023/02/14 04:14:36;;;;;;;21.98;11.75;;;154.40;2252.80;;;;;;5053434;28;20534;-76
2023/02/14 04:19:47;;;;;;;22.83;11.18;;;154.40;2252.80;;;;;;5053851;28;20037;-77
2023/02/14 04:22:12;;;;;;;;;;;154.40;2252.80;;;;;;5036384;28;20029;-78
2023/02/14 04:24:38;;;;;;;22.17;11.95;;;154.40;2252.80;;;;;;5035260;28;20377;-77
2023/02/14 04:27:11;;;;;;;23.73;12.13;;;154.40;2252.80;;;;;;5035559;28;20029;-78
2023/02/14 04:29:39;;;;;;;23.20;12.38;;;154.40;2252.80;;;;;;5053251;28;20489;-77
2023/02/14 04:32:07;;;;;;;21.58;12.65;;;154.40;2252.80;;;;;;5035558;28;20025;-78
2023/02/14 04:34:33;;;;;;;20.33;11.63;;;154.30;2252.80;;;;;;5053526;28;20017;-78
2023/02/14 04:36:58;;;;;;;;;;;154.30;2252.80;;;;;;5053690;28;20050;-77
2023/02/14 04:39:24;;;;;;;26.15;12.10;;;154.30;2252.80;;;;;;5034368;28;19959;-78
2023/02/14 04:41:50;;;;;;;;;;;154.30;2252.80;;;;;;5035359;28;20053;-78
2023/02/14 04:44:15;;;;;;;21.38;11.02;;;154.30;2252.80;;;;;;5035301;28;19908;-78
2023/02/14 04:46:41;;;;;;;;;;;154.40;2252.80;;;;;;5035707;28;20040;-78
2023/02/14 04:49:07;;;;;;;26.42;11.07;;;154.20;2252.80;;;;;;5034963;28;19904;-77
2023/02/14 04:51:32;;;;;;;;;;;154.40;2252.80;;;;;;5034713;28;20108;-78
2023/02/14 04:53:58;;;;;;;26.73;13.32;;;154.40;2252.80;;;;;;5053003;28;19905;-78
2023/02/14 04:56:25;;;;;;;;;;;154.50;2252.80;;;;;;5035415;28;20375;-78
2023/02/14 04:58:52;;;;;;;23.05;11.48;;;154.50;2252.80;;;;;;5035242;28;19904;-78
2023/02/14 05:01:17;;;;;;;22.38;10.95;;;154.40;2252.80;;;;;;5035205;28;20445;-77
2023/02/14 05:03:43;;;;;;;;;;;154.40;2252.80;;;;;;5035415;28;20029;-76
2023/02/14 05:06:09;;;;;;;26.77;12.80;;;154.50;2252.80;;;;;;5034583;28;19904;-77
2023/02/14 05:08:34;;;;;;;;;;;154.50;2252.80;;;;;;5034525;28;20041;-77
2023/02/14 05:11:00;;;;;;;27.58;13.80;;;154.50;2252.80;;;;;;5052811;28;19930;-76
2023/02/14 05:13:25;;;;;;;;;;;154.40;2252.80;;;;;;5034857;28;20090;-77
2023/02/14 05:15:51;;;;;;;27.73;13.88;;;154.40;2252.80;;;;;;5035064;28;19904;-77
2023/02/14 05:18:17;;;;;;;;;;;154.40;2252.80;;;;;;5035400;28;20021;-77
2023/02/14 05:20:42;;;;;;;27.35;12.68;;;154.40;2252.80;;;;;;5035039;28;19905;-77
2023/02/14 05:23:12;;;;;;;;;;;154.40;2252.80;;;;;;5035267;28;20028;-77
2023/02/14 05:25:39;;;;;;;24.10;11.63;;;154.40;2252.80;;;;;;5034665;28;19911;-78
2023/02/14 05:28:05;;;;;;;24.58;13.25;;;154.40;2252.80;;;;;;5034585;28;20040;-77
2023/02/14 05:30:31;;;;;;;28.83;13.63;;;154.30;2252.80;;;;;;5034533;28;20090;-77
2023/02/14 05:32:56;;;;;;;;;;;154.40;2252.80;;;;;;5034886;28;20485;-78
2023/02/14 05:35:22;;;;;;;29.30;13.73;;;154.50;2252.80;;;;;;5052503;28;19909;-77
2023/02/14 05:37:47;;;;;;;;;;;154.40;2252.80;;;;;;5034842;28;20033;-77
2023/02/14 05:40:15;;;;;;;33.47;15.60;;;154.50;2252.80;;;;;;5034115;28;19917;-77
2023/02/14 05:42:41;;;;;;;30.70;14.13;;;154.40;2252.80;;;;;;5034736;28;20021;-77
2023/02/14 05:45:07;;;;;;;38.63;17.30;;;154.40;2252.80;;;;;;5034549;28;20029;-78
2023/02/14 05:47:33;;;;;;;40.03;17.77;;;154.40;2252.80;;;;;;5034071;28;20140;-78
2023/02/14 05:49:58;;;;;;;;;;;154.40;2252.80;;;;;;5052882;28;20104;-78
2023/02/14 05:52:24;;;;;;;59.22;24.95;;;154.50;2252.80;;;;;;5055304;28;19909;-78
2023/02/14 05:54:50;;;;;;;;;;;154.50;2252.80;;;;;;5038769;28;20029;-77
2023/02/14 05:57:16;;;;;;;29.95;14.88;;;154.50;2252.80;;;;;;5056302;28;19905;-77
2023/02/14 05:59:41;;;;;;;;;;;154.50;2252.80;;;;;;5038903;28;20029;-77
2023/02/14 06:02:07;;;;;;;32.13;17.27;;;154.50;2252.80;;;;;;5038136;28;19947;-78
2023/02/14 06:04:32;;;;;;;;;;;154.50;2252.80;;;;;;5038493;28;20052;-78
2023/02/14 06:06:58;;;;;;;29.85;13.35;;;154.50;2252.80;;;;;;5038217;28;20389;-78
2023/02/14 06:09:24;;;;;;;;;;;154.50;2252.80;;;;;;5037988;28;20098;-78
2023/02/14 06:11:49;;;;;;;32.63;14.80;;;154.50;2252.80;;;;;;5055976;28;19916;-78
2023/02/14 06:14:15;;;;;;;;;;;154.50;2252.80;;;;;;5037551;28;20037;-77
2023/02/14 06:16:41;;;;;;;42.45;16.50;;;179.20;2252.80;;;;;;5037796;28;19905;-78
2023/02/14 06:19:06;;;;;;;;;;;179.20;2252.80;;;;;;5038476;28;20701;-78
2023/02/14 06:21:32;;;;;;;29.42;13.38;;;154.50;2252.80;;;;;;5055944;28;19948;-77
2023/02/14 06:23:58;;;;;;;;;;;154.50;2252.80;;;;;;5056092;28;20028;-78
2023/02/14 06:26:26;;;;;;;43.78;18.02;;;154.40;2252.80;;;;;;5037847;28;20247;-78
2023/02/14 06:28:57;;;;;;;37.42;17.35;;;154.40;2252.80;;;;;;5037868;28;20040;-78
2023/02/14 06:31:24;;;;;;;43.55;20.02;;;154.40;2252.80;;;;;;5035678;28;20090;-78
2023/02/14 06:33:51;;;;;;;41.97;18.90;;;154.50;2252.80;;;;;;5041595;28;20025;-78
2023/02/14 06:36:17;;;;;;;62.67;36.50;;;154.50;2252.80;;;;;;5049449;28;20097;-77
2023/02/14 06:38:43;;;;;;;39.33;20.70;;;154.50;2252.80;;;;;;5054844;28;20016;-78
2023/02/14 06:41:10;;;;;;;34.30;16.48;;;154.50;2252.80;;;;;;5053003;28;20083;-79
2023/02/14 06:43:36;;;;;;;27.55;15.27;;;154.20;2252.80;;;;;;5046662;28;20133;-78
2023/02/14 06:46:02;;;;;;;25.33;13.70;;;154.50;2252.80;;;;;;5067215;28;20024;-79
2023/02/14 06:48:28;;;;;;;;;;;154.50;2252.80;;;;;;5050244;28;20065;-79
2023/02/14 06:50:54;;;;;;;24.95;13.43;;;154.40;2252.80;;;;;;5042581;28;19909;-79
2023/02/14 06:53:20;;;;;;;;;;;154.40;2252.80;;;;;;5035254;28;20025;-79
2023/02/14 06:55:46;;;;;;;28.38;13.68;;;154.50;2252.80;;;;;;5047089;28;19905;-79
2023/02/14 06:58:12;;;;;;;32.28;12.93;;;154.50;2252.80;;;;;;5054682;28;20017;-76
2023/02/14 07:00:38;;;;;;;;;;;154.50;2252.80;;;;;;5027668;28;20075;-78
2023/02/14 07:03:05;;;;;;;26.27;12.13;;;154.50;2252.80;;;;;;5050423;28;20007;-78
2023/02/14 07:05:31;;;;;;;23.92;12.65;;;154.40;2252.80;;;;;;5034985;28;20025;-79
2023/02/14 07:07:57;;;;;;;27.08;13.80;;;154.40;2252.80;;;;;;5030892;28;20074;-78
2023/02/14 07:10:23;;;;;;;;;;;154.40;2252.80;;;;;;5038954;28;20116;-79
2023/02/14 07:12:49;;;;;;;31.25;13.57;;;154.50;2252.80;;;;;;5048278;28;19909;-79
2023/02/14 07:15:14;;;;;;;;;;;154.50;2252.80;;;;;;5045946;28;20033;-79
2023/02/14 07:17:40;;;;;;;38.13;16.63;;;154.40;2252.80;;;;;;5047113;28;19905;-79
2023/02/14 07:20:07;;;;;;;;;;;154.40;2252.80;;;;;;5046193;28;20373;-79
2023/02/14 07:22:33;;;;;;;28.25;13.65;;;154.50;2252.80;;;;;;5046711;28;20328;-81
2023/02/14 07:24:59;;;;;;;24.70;13.55;;;179.50;2252.80;;;;;;5040606;28;20056;-80
2023/02/14 07:27:25;;;;;;;;;;;154.50;2252.80;;;;;;5050439;28;20060;-80
2023/02/14 07:29:51;;;;;;;25.50;12.77;;;179.20;2252.80;;;;;;5050811;28;20307;-81
2023/02/14 07:32:16;;;;;;;;;;;154.50;2252.80;;;;;;5043556;28;20047;-77
2023/02/14 07:34:42;;;;;;;34.15;17.88;;;154.50;2252.80;;;;;;5058539;28;19948;-79
2023/02/14 07:37:08;;;;;;;;;;;154.50;2252.80;;;;;;5041953;28;20029;-78
2023/02/14 07:39:34;;;;;;;35.53;15.10;;;154.50;2252.80;;;;;;5060382;28;20282;-78
2023/02/14 07:42:00;;;;;;;33.25;14.68;;;179.20;2252.80;;;;;;5055287;28;20823;-78
2023/02/14 07:44:25;;;;;;;;;;;179.30;2252.80;;;;;;5050381;28;20108;-79
2023/02/14 07:46:51;;;;;;;44.38;19.83;;;179.30;2252.80;;;;;;5052281;28;19939;-79
2023/02/14 07:49:17;;;;;;;;;;;179.30;2252.80;;;;;;5048555;28;20109;-79
2023/02/14 07:51:43;;;;;;;55.45;25.25;;;179.30;2252.80;;;;;;5055273;28;19905;-82
2023/02/14 07:54:08;;;;;;;;;;;179.40;2252.80;;;;;;5051199;28;20426;-79
2023/02/14 07:56:34;;;;;;;101.47;41.63;;;179.20;2252.80;;;;;;5038144;28;19911;-80
2023/02/14 07:58:59;;;;;;;;;;;179.20;2252.80;;;;;;5038048;28;20017;-78
2023/02/14 08:01:25;;;;;;;45.25;18.48;;;179.20;2252.80;;;;;;5030041;28;19906;-79
2023/02/14 08:03:51;;;;;;;;;;;179.30;2252.80;;;;;;5039542;28;20484;-78
2023/02/14 08:06:20;;;;;;;36.13;15.52;;;179.30;2252.80;;;;;;5034954;28;19959;-80
2023/02/14 08:08:46;;;;;;;33.20;15.75;;;179.30;2252.80;;;;;;5034310;28;20560;-78
2023/02/14 08:12:57;;;;;;;33.22;16.17;;;179.40;2252.80;;;;;;5054535;28;20037;-77
2023/02/14 08:13:58;;;;;;;26.63;13.75;;;179.40;2252.80;;;;;;5056747;28;20060;-79
2023/02/14 08:16:24;;;;;;;;;;;179.40;2252.80;;;;;;5037995;28;20056;-77
2023/02/14 08:18:50;;;;;;;29.45;14.93;;;179.40;2252.80;;;;;;5039686;28;19905;-80
2023/02/14 08:21:16;;;;;;;31.58;14.73;;;179.50;2252.80;;;;;;5037932;28;20052;-80
2023/02/14 08:23:42;;;;;;;;;;;179.60;2252.80;;;;;;5036975;28;20420;-79
2023/02/14 08:26:08;;;;;;;30.73;15.75;;;179.60;2252.80;;;;;;5038895;28;19911;-81
2023/02/14 08:28:34;;;;;;;;;;;179.40;2252.80;;;;;;5042709;28;20087;-78
2023/02/14 08:31:01;;;;;;;38.35;16.70;;;179.50;2252.80;;;;;;5047923;28;20312;-79
2023/02/14 08:33:27;;;;;;;35.58;16.88;;;179.30;2252.80;;;;;;5049626;28;20021;-82
2023/02/14 08:35:52;;;;;;;;;;;179.40;2252.80;;;;;;5063677;28;20171;-88
2023/02/14 08:38:18;;;;;;;37.28;16.77;;;179.40;2252.80;;;;;;5038363;28;19969;-87
2023/02/14 08:40:44;;;;;;;;;;;179.20;2252.80;;;;;;5048752;28;20131;-89
2023/02/14 08:43:10;;;;;;;29.00;15.50;;;179.20;2252.80;;;;;;5044671;28;19919;-85
2023/02/14 08:45:36;;;;;;;;;;;179.30;2252.80;;;;;;5041952;28;20114;-87
2023/02/14 08:48:08;;;;;;;31.45;14.73;;;154.50;2252.80;;;;;;5036187;28;20361;-80
2023/02/14 08:50:34;;;;;;;32.03;16.75;;;179.30;2252.80;;;;;;5053298;28;20546;-79
2023/02/14 08:53:00;;;;;;;35.58;20.00;;;179.40;2252.80;;;;;;5036586;28;20030;-84
2023/02/14 08:55:26;;;;;;;;;;;179.50;2252.80;;;;;;5040650;28;20031;-80
2023/02/14 08:57:55;;;;;;;27.30;14.17;;;179.60;2252.80;;;;;;5049623;28;19909;-79
2023/02/14 09:00:21;;;;;;;35.15;16.80;;;179.70;2252.80;;;;;;5047054;28;20032;-79
2023/02/14 09:02:51;;;;;;;;;;;179.60;2252.80;;;;;;5038030;28;20029;-80
2023/02/14 09:05:17;;;;;;;37.08;19.67;;;179.70;2252.80;;;;;;5065873;28;20396;-79
2023/02/14 09:07:42;;;;;;;;;;;179.80;2252.80;;;;;;5031259;28;20037;-78
2023/02/14 09:10:08;;;;;;;36.38;18.15;;;179.80;2252.80;;;;;;5048824;28;20276;-78
2023/02/14 09:12:37;;;;;;;30.00;16.13;;;179.80;2252.80;;;;;;5040265;28;20033;-77
2023/02/14 09:15:03;;;;;;;35.63;15.30;;;179.80;2252.80;;;;;;5060997;28;20047;-79
2023/02/14 09:17:29;;;;;;;;;;;179.80;2252.80;;;;;;5043752;28;20545;-78
2023/02/14 09:19:55;;;;;;;35.85;16.70;;;179.80;2252.80;;;;;;5039575;28;19904;-78
2023/02/14 09:22:20;;;;;;;;;;;179.80;2252.80;;;;;;5041471;28;20021;-79
2023/02/14 09:24:46;;;;;;;28.60;15.00;;;179.80;2252.80;;;;;;5046776;28;19905;-84
2023/02/14 09:27:12;;;;;;;;;;;179.90;2252.80;;;;;;5054529;28;20033;-80
2023/02/14 09:29:37;;;;;;;27.92;16.23;;;180.00;2252.80;;;;;;5062125;28;19957;-80
2023/02/14 09:32:03;;;;;;;;;;;180.00;2252.80;;;;;;5044177;28;20116;-80
2023/02/14 09:39:59;;;;;;;29.45;16.27;;;180.10;2252.80;;;;;;5065338;28;20570;-75
2023/02/14 09:42:37;;;;;;;;;;;180.10;2252.80;;;;;;5060412;28;20037;-82
2023/02/14 09:45:09;;;;;;;27.80;13.15;;;204.80;2252.80;;;;;;5027665;28;20379;-77
2023/02/14 09:47:57;;;;;;;36.13;18.73;;;204.80;2252.80;;;;;;5054878;28;20029;-80
2023/02/14 09:50:57;;;;;;;29.77;16.13;;;204.90;2252.80;;;;;;5041000;28;20017;-77
2023/02/14 09:53:48;;;;;;;32.20;15.80;;;205.00;2252.80;;;;;;4972734;28;20619;-78
2023/02/14 09:56:19;;;;;;;37.20;18.60;;;204.90;2252.80;;;;;;4958386;28;20043;-76
2023/02/14 09:59:00;;;;;;;29.33;15.98;;;204.90;2252.80;;;;;;4965625;28;20078;-75
2023/02/14 10:01:32;;;;;;;29.30;16.00;;;205.00;2252.80;;;;;;4968735;28;20496;-77
2023/02/14 10:04:04;;;;;;;32.75;16.45;;;205.20;2252.80;;;;;;4971200;28;20038;-77
2023/02/14 10:06:35;;;;;;;36.15;17.35;;;205.20;2252.80;;;;;;4969715;28;20027;-79
2023/02/14 10:09:27;;;;;;;41.75;19.23;;;205.30;2252.80;;;;;;4955249;28;20027;-78
2023/02/14 10:11:53;;;;;;;31.85;16.88;;;205.40;2252.80;;;;;;4965866;28;20044;-79
2023/02/14 10:14:24;;;;;;;34.33;16.58;;;205.50;2252.80;;;;;;4964606;28;20059;-79
2023/02/14 10:16:55;;;;;;;36.33;18.38;;;205.50;2252.80;;;;;;4946520;28;20179;-78
2023/02/14 10:19:43;;;;;;;31.63;17.38;;;205.60;2252.80;;;;;;4964758;28;20417;-77
2023/02/14 10:22:15;;;;;;;33.08;16.65;;;205.70;2252.80;;;;;;4966287;28;20105;-78
2023/02/14 10:24:57;;;;;;;31.15;17.23;;;205.60;2252.80;;;;;;4966756;28;20042;-79
2023/02/14 10:27:33;;;;;;;40.00;19.52;;;205.60;2252.80;;;;;;4961468;28;20039;-78
2023/02/14 10:30:01;;;;;;;24.30;12.98;;;205.60;2252.80;;;;;;4992702;28;20063;-77
2023/02/14 10:32:55;;;;;;;34.95;18.60;;;205.60;2252.80;;;;;;5033077;28;20037;-78
2023/02/14 10:35:45;;;;;;;32.03;16.98;;;205.60;2252.80;;;;;;5056517;28;20082;-78
2023/02/14 10:38:35;;;;;;;32.72;17.63;;;230.40;2252.80;;;;;;5046440;28;20028;-78
2023/02/14 10:41:23;;;;;;;38.03;19.20;;;230.40;2252.80;;;;;;5029142;28;20471;-79
2023/02/14 10:44:13;;;;;;;38.50;18.13;;;230.50;2252.80;;;;;;5039427;28;20513;-78
2023/02/14 10:47:01;;;;;;;38.85;19.67;;;230.60;2252.80;;;;;;5044213;28;20032;-78
2023/02/14 10:49:35;;;;;;;36.75;17.33;;;230.50;2252.80;;;;;;5027476;28;20494;-78
2023/02/14 10:52:07;;;;;;;36.35;18.40;;;230.60;2252.80;;;;;;5046090;28;20095;-78
2023/02/14 10:54:37;;;;;;;34.92;17.98;;;230.50;2252.80;;;;;;5047640;28;20022;-78
2023/02/14 10:57:11;;;;;;;41.58;20.33;;;230.50;2252.80;;;;;;5064457;28;20024;-78
2023/02/14 10:59:54;;;;;;;40.83;21.20;;;230.60;2252.80;;;;;;5057537;28;20021;-78
2023/02/14 11:02:31;;;;;;;42.90;20.33;;;230.60;2252.80;;;;;;5052382;28;20030;-77
2023/02/14 11:04:58;;;;;;;36.40;19.50;;;230.60;2252.80;;;;;;5044293;28;20040;-78
2023/02/14 11:07:24;;;;;;;36.60;17.85;;;230.70;2252.80;;;;;;5066442;28;20492;-78
2023/02/14 11:09:50;;;;;;;34.03;18.42;;;230.80;2252.80;;;;;;5042640;28;20116;-77
2023/02/14 11:12:36;;;;;;;;;;;230.90;2252.80;;;;;;5043949;28;20060;-78
2023/02/14 11:15:14;;;;;;;34.55;19.58;;;230.90;2252.80;;;;;;5062263;28;19928;-77
2023/02/14 11:17:41;;;;;;;38.13;20.52;;;230.80;2252.80;;;;;;5050235;28;20018;-77
2023/02/14 11:20:18;;;;;;;42.72;20.10;;;230.80;2252.80;;;;;;5043924;28;20025;-77
2023/02/14 11:22:45;;;;;;;36.70;20.52;;;230.80;2252.80;;;;;;5064449;28;20040;-78
2023/02/14 11:25:18;;;;;;;37.35;19.83;;;230.80;2252.80;;;;;;5048108;28;20025;-78
2023/02/14 11:27:48;;;;;;;38.03;20.25;;;230.80;2252.80;;;;;;5060591;28;20032;-78
2023/02/14 11:30:42;;;;;;;36.28;19.75;;;230.70;2252.80;;;;;;5043091;28;20029;-78
2023/02/14 11:33:27;;;;;;;44.38;22.15;;;230.60;2252.80;;;;;;4963123;28;20043;-77
2023/02/14 11:35:53;;;;;;;35.15;18.92;;;230.60;2252.80;;;;;;4951792;28;20473;-79
2023/02/14 11:38:37;;;;;;;44.75;21.77;;;230.60;2252.80;;;;;;4975462;28;20135;-77
2023/02/14 11:41:04;;;;;;;36.40;20.27;;;230.70;2252.80;;;;;;4986905;28;20046;-77
2023/02/14 11:43:30;;;;;;;47.40;21.60;;;230.80;2252.80;;;;;;4990813;28;20045;-76
2023/02/14 11:46:29;;;;;;;38.60;21.02;;;230.80;2252.80;;;;;;4958245;28;20035;-78
2023/02/14 11:48:58;;;;;;;39.58;20.33;;;230.70;2252.80;;;;;;4893525;29;20044;-76
2023/02/14 11:51:35;;;;;;;38.53;21.48;;;230.60;2252.80;;;;;;4873571;29;20119;-75
2023/02/14 11:54:04;;;;;;;37.80;19.10;;;230.60;2252.80;;;;;;4865247;29;20033;-76
2023/02/14 11:56:47;;;;;;;35.22;18.55;;;230.60;2252.80;;;;;;4884855;29;20115;-76
2023/02/14 11:59:28;;;;;;;36.55;21.02;;;230.60;2252.80;;;;;;4888061;29;20044;-77
2023/02/14 12:01:55;;;;;;;33.67;18.58;;;230.60;2252.80;;;;;;4865572;29;20080;-77
2023/02/14 12:04:33;;;;;;;38.78;21.50;;;230.60;2252.80;;;;;;4888589;29;20072;-76
2023/02/14 12:07:20;;;;;;;35.60;19.65;;;230.80;2252.80;;;;;;4871290;29;20531;-77
2023/02/14 12:10:03;;;;;;;39.38;20.77;;;230.90;2252.80;;;;;;4905182;28;20027;-77
2023/02/14 12:12:29;;;;;;;38.53;21.08;;;230.90;2252.80;;;;;;4971355;28;20114;-77
2023/02/14 12:15:21;;;;;;;37.38;20.35;;;230.90;2252.80;;;;;;4948922;28;20556;-76
2023/02/14 12:17:52;;;;;;;39.13;20.40;;;230.90;2252.80;;;;;;4955380;28;20600;-78
2023/02/14 12:20:34;;;;;;;36.63;20.63;;;230.90;2252.80;;;;;;4955380;28;20473;-81
2023/02/14 12:23:38;;;;;;;34.00;18.98;;;230.90;2252.80;;;;;;4955439;28;20041;-77
2023/02/14 12:26:14;;;;;;;34.17;18.15;;;230.80;2252.80;;;;;;5011174;28;20034;-77
2023/02/14 12:28:48;;;;;;;34.80;17.60;;;230.80;2252.80;;;;;;5011734;28;20040;-77
2023/02/14 12:31:14;;;;;;;39.80;19.98;;;230.80;2252.80;;;;;;4997392;28;20279;-77
2023/02/14 12:33:40;;;;;;;34.70;18.77;;;230.80;2252.80;;;;;;4998348;28;20048;-77
2023/02/14 12:36:05;;;;;;;;;;;230.70;2252.80;;;;;;5000595;28;20026;-77
2023/02/14 12:38:48;;;;;;;31.55;17.73;;;230.70;2252.80;;;;;;5016541;28;19912;-79
2023/02/14 12:41:17;;;;;;;34.72;19.35;;;230.70;2252.80;;;;;;4997931;28;20551;-79
2023/02/14 12:43:57;;;;;;;35.63;19.05;;;230.90;2252.80;;;;;;4995912;28;20026;-77
2023/02/14 12:46:53;;;;;;;36.72;20.45;;;231.00;2252.80;;;;;;5015532;28;20395;-81
2023/02/14 12:49:48;;;;;;;38.03;19.60;;;230.90;2252.80;;;;;;4995762;28;20062;-80
2023/02/14 12:52:40;;;;;;;34.42;17.92;;;231.00;2252.80;;;;;;4992937;28;20038;-82
2023/02/14 12:55:21;;;;;;;35.90;19.33;;;231.00;2252.80;;;;;;5018464;28;20037;-79
2023/02/14 12:58:09;;;;;;;39.25;19.42;;;230.90;2252.80;;;;;;5011397;28;20099;-80
2023/02/14 13:00:41;;;;;;;37.53;19.98;;;231.00;2252.80;;;;;;4994988;28;20073;-80